sensor_id;sensor_type;location;lat;lon;timestamp;P1;durP1;ratioP1;P2;durP2;ratioP2
83814;SDS011;73829;53.826;-3.034;2024-03-17T00:02:27;4.10;;;1.90;;
83814;SDS011;73829;53.826;-3.034;2024-03-17T00:07:27;4.20;;;2.00;;
83814;SDS011;73829;53.826;-3.034;2024-03-17T00:09:57;3.70;;;1.80;;
83814;SDS011;73829;53.826;-3.034;2024-03-17T00:12:28;3.90;;;1.80;;
83814;SDS011;73829;53.826;-3.034;2024-03-17T00:14:59;5.10;;;1.80;;
83814;SDS011;73829;53.826;-3.034;2024-03-17T00:17:29;4.80;;;1.70;;
83814;SDS011;73829;53.826;-3.034;2024-03-17T00:22:36;4.10;;;1.90;;
83814;SDS011;73829;53.826;-3.034;2024-03-17T00:25:08;3.50;;;1.60;;
83814;SDS011;73829;53.826;-3.034;2024-03-17T00:27:39;4.00;;;1.60;;
83814;SDS011;73829;53.826;-3.034;2024-03-17T00:30:12;3.80;;;1.80;;
83814;SDS011;73829;53.826;-3.034;2024-03-17T00:32:43;4.20;;;1.80;;
83814;SDS011;73829;53.826;-3.034;2024-03-17T00:37:48;4.00;;;1.70;;
83814;SDS011;73829;53.826;-3.034;2024-03-17T00:40:19;3.30;;;1.70;;
83814;SDS011;73829;53.826;-3.034;2024-03-17T00:42:50;3.70;;;1.70;;
83814;SDS011;73829;53.826;-3.034;2024-03-17T00:45:21;3.60;;;1.60;;
83814;SDS011;73829;53.826;-3.034;2024-03-17T00:47:52;2.90;;;1.40;;
83814;SDS011;73829;53.826;-3.034;2024-03-17T00:50:23;2.90;;;1.20;;
83814;SDS011;73829;53.826;-3.034;2024-03-17T00:52:53;3.20;;;1.60;;
83814;SDS011;73829;53.826;-3.034;2024-03-17T00:55:24;4.00;;;1.60;;
83814;SDS011;73829;53.826;-3.034;2024-03-17T00:57:54;4.10;;;1.60;;
83814;SDS011;73829;53.826;-3.034;2024-03-17T01:02:54;3.40;;;1.40;;
83814;SDS011;73829;53.826;-3.034;2024-03-17T01:05:24;2.90;;;1.30;;
83814;SDS011;73829;53.826;-3.034;2024-03-17T01:07:55;4.20;;;1.40;;
83814;SDS011;73829;53.826;-3.034;2024-03-17T01:10:26;3.70;;;1.50;;
83814;SDS011;73829;53.826;-3.034;2024-03-17T01:12:57;3.80;;;1.30;;
83814;SDS011;73829;53.826;-3.034;2024-03-17T01:15:28;3.20;;;1.40;;
83814;SDS011;73829;53.826;-3.034;2024-03-17T01:17:58;4.10;;;1.40;;
83814;SDS011;73829;53.826;-3.034;2024-03-17T01:20:29;3.70;;;1.50;;
83814;SDS011;73829;53.826;-3.034;2024-03-17T01:23:01;3.60;;;1.60;;
83814;SDS011;73829;53.826;-3.034;2024-03-17T01:25:32;3.90;;;1.40;;
83814;SDS011;73829;53.826;-3.034;2024-03-17T01:28:05;4.00;;;1.60;;
83814;SDS011;73829;53.826;-3.034;2024-03-17T01:30:37;3.40;;;1.50;;
83814;SDS011;73829;53.826;-3.034;2024-03-17T01:33:08;3.40;;;1.60;;
83814;SDS011;73829;53.826;-3.034;2024-03-17T01:35:39;3.40;;;1.40;;
83814;SDS011;73829;53.826;-3.034;2024-03-17T01:38:11;3.50;;;1.40;;
83814;SDS011;73829;53.826;-3.034;2024-03-17T01:40:41;3.10;;;1.50;;
83814;SDS011;73829;53.826;-3.034;2024-03-17T01:43:12;3.00;;;1.40;;
83814;SDS011;73829;53.826;-3.034;2024-03-17T01:45:42;2.80;;;1.30;;
83814;SDS011;73829;53.826;-3.034;2024-03-17T01:48:13;3.10;;;1.50;;
83814;SDS011;73829;53.826;-3.034;2024-03-17T01:50:49;3.10;;;1.10;;
83814;SDS011;73829;53.826;-3.034;2024-03-17T01:53:21;3.10;;;1.20;;
83814;SDS011;73829;53.826;-3.034;2024-03-17T01:55:55;2.50;;;1.10;;
83814;SDS011;73829;53.826;-3.034;2024-03-17T01:58:28;3.00;;;1.10;;
83814;SDS011;73829;53.826;-3.034;2024-03-17T02:01:00;2.80;;;1.30;;
83814;SDS011;73829;53.826;-3.034;2024-03-17T02:03:31;3.30;;;1.40;;
83814;SDS011;73829;53.826;-3.034;2024-03-17T02:06:02;3.90;;;1.40;;
83814;SDS011;73829;53.826;-3.034;2024-03-17T02:08:47;3.10;;;1.30;;
83814;SDS011;73829;53.826;-3.034;2024-03-17T02:11:27;3.70;;;1.30;;
83814;SDS011;73829;53.826;-3.034;2024-03-17T02:13:59;2.70;;;1.20;;
83814;SDS011;73829;53.826;-3.034;2024-03-17T02:16:30;3.00;;;1.20;;
83814;SDS011;73829;53.826;-3.034;2024-03-17T02:19:01;3.10;;;1.20;;
83814;SDS011;73829;53.826;-3.034;2024-03-17T02:21:32;3.10;;;1.40;;
83814;SDS011;73829;53.826;-3.034;2024-03-17T02:24:02;3.00;;;1.30;;
83814;SDS011;73829;53.826;-3.034;2024-03-17T02:26:33;2.90;;;1.40;;
83814;SDS011;73829;53.826;-3.034;2024-03-17T02:29:05;3.00;;;1.30;;
83814;SDS011;73829;53.826;-3.034;2024-03-17T02:31:36;3.00;;;1.40;;
83814;SDS011;73829;53.826;-3.034;2024-03-17T02:34:07;3.20;;;1.50;;
83814;SDS011;73829;53.826;-3.034;2024-03-17T02:36:37;3.00;;;1.30;;
83814;SDS011;73829;53.826;-3.034;2024-03-17T02:39:08;3.80;;;1.50;;
83814;SDS011;73829;53.826;-3.034;2024-03-17T02:41:56;3.30;;;1.40;;
83814;SDS011;73829;53.826;-3.034;2024-03-17T02:44:27;2.70;;;1.30;;
83814;SDS011;73829;53.826;-3.034;2024-03-17T02:46:58;2.50;;;1.00;;
83814;SDS011;73829;53.826;-3.034;2024-03-17T02:49:30;2.60;;;1.10;;
83814;SDS011;73829;53.826;-3.034;2024-03-17T02:52:05;2.90;;;1.30;;
83814;SDS011;73829;53.826;-3.034;2024-03-17T02:54:37;2.70;;;1.10;;
83814;SDS011;73829;53.826;-3.034;2024-03-17T02:59:36;3.00;;;1.20;;
83814;SDS011;73829;53.826;-3.034;2024-03-17T03:02:07;2.70;;;1.20;;
83814;SDS011;73829;53.826;-3.034;2024-03-17T03:04:38;3.10;;;1.10;;
83814;SDS011;73829;53.826;-3.034;2024-03-17T03:07:08;2.80;;;1.20;;
83814;SDS011;73829;53.826;-3.034;2024-03-17T03:09:39;2.90;;;1.10;;
83814;SDS011;73829;53.826;-3.034;2024-03-17T03:12:10;2.60;;;1.00;;
83814;SDS011;73829;53.826;-3.034;2024-03-17T03:14:40;2.90;;;1.00;;
83814;SDS011;73829;53.826;-3.034;2024-03-17T03:19:40;2.80;;;1.20;;
83814;SDS011;73829;53.826;-3.034;2024-03-17T03:22:11;2.40;;;1.10;;
83814;SDS011;73829;53.826;-3.034;2024-03-17T03:24:43;2.40;;;1.00;;
83814;SDS011;73829;53.826;-3.034;2024-03-17T03:27:14;2.90;;;1.10;;
83814;SDS011;73829;53.826;-3.034;2024-03-17T03:29:45;3.10;;;1.20;;
83814;SDS011;73829;53.826;-3.034;2024-03-17T03:32:16;2.60;;;1.00;;
83814;SDS011;73829;53.826;-3.034;2024-03-17T03:34:46;2.70;;;1.00;;
83814;SDS011;73829;53.826;-3.034;2024-03-17T03:37:17;2.40;;;0.90;;
83814;SDS011;73829;53.826;-3.034;2024-03-17T03:39:48;3.30;;;1.10;;
83814;SDS011;73829;53.826;-3.034;2024-03-17T03:42:21;2.90;;;1.10;;
83814;SDS011;73829;53.826;-3.034;2024-03-17T03:44:52;2.30;;;0.80;;
83814;SDS011;73829;53.826;-3.034;2024-03-17T03:47:22;2.20;;;0.80;;
83814;SDS011;73829;53.826;-3.034;2024-03-17T03:49:53;2.50;;;0.90;;
83814;SDS011;73829;53.826;-3.034;2024-03-17T03:52:23;2.30;;;0.90;;
83814;SDS011;73829;53.826;-3.034;2024-03-17T03:54:54;1.70;;;0.80;;
83814;SDS011;73829;53.826;-3.034;2024-03-17T03:57:25;2.30;;;0.80;;
83814;SDS011;73829;53.826;-3.034;2024-03-17T03:59:57;2.40;;;1.00;;
83814;SDS011;73829;53.826;-3.034;2024-03-17T04:02:33;2.40;;;0.80;;
83814;SDS011;73829;53.826;-3.034;2024-03-17T04:05:04;2.20;;;1.00;;
83814;SDS011;73829;53.826;-3.034;2024-03-17T04:07:35;2.30;;;1.00;;
83814;SDS011;73829;53.826;-3.034;2024-03-17T04:10:07;2.00;;;0.80;;
83814;SDS011;73829;53.826;-3.034;2024-03-17T04:12:38;2.10;;;0.80;;
83814;SDS011;73829;53.826;-3.034;2024-03-17T04:15:10;2.30;;;0.90;;
83814;SDS011;73829;53.826;-3.034;2024-03-17T04:17:41;2.20;;;0.80;;
83814;SDS011;73829;53.826;-3.034;2024-03-17T04:20:12;2.60;;;0.90;;
83814;SDS011;73829;53.826;-3.034;2024-03-17T04:22:43;2.40;;;0.90;;
83814;SDS011;73829;53.826;-3.034;2024-03-17T04:25:15;2.00;;;0.80;;
83814;SDS011;73829;53.826;-3.034;2024-03-17T04:30:15;2.20;;;0.80;;
83814;SDS011;73829;53.826;-3.034;2024-03-17T04:32:46;2.40;;;0.90;;
83814;SDS011;73829;53.826;-3.034;2024-03-17T04:35:16;2.70;;;1.10;;
83814;SDS011;73829;53.826;-3.034;2024-03-17T04:40:16;2.20;;;0.80;;
83814;SDS011;73829;53.826;-3.034;2024-03-17T04:42:47;2.70;;;1.00;;
83814;SDS011;73829;53.826;-3.034;2024-03-17T04:45:17;1.90;;;0.70;;
83814;SDS011;73829;53.826;-3.034;2024-03-17T04:47:48;2.70;;;0.80;;
83814;SDS011;73829;53.826;-3.034;2024-03-17T04:50:18;1.90;;;0.70;;
83814;SDS011;73829;53.826;-3.034;2024-03-17T04:52:50;2.60;;;0.80;;
83814;SDS011;73829;53.826;-3.034;2024-03-17T04:55:20;2.60;;;0.90;;
83814;SDS011;73829;53.826;-3.034;2024-03-17T04:57:51;2.30;;;0.80;;
83814;SDS011;73829;53.826;-3.034;2024-03-17T05:00:21;1.80;;;0.60;;
83814;SDS011;73829;53.826;-3.034;2024-03-17T05:02:52;1.90;;;0.80;;
83814;SDS011;73829;53.826;-3.034;2024-03-17T05:05:23;2.30;;;0.80;;
83814;SDS011;73829;53.826;-3.034;2024-03-17T05:07:53;2.00;;;0.80;;
83814;SDS011;73829;53.826;-3.034;2024-03-17T05:10:24;2.70;;;1.00;;
83814;SDS011;73829;53.826;-3.034;2024-03-17T05:12:54;2.10;;;0.80;;
83814;SDS011;73829;53.826;-3.034;2024-03-17T05:15:25;2.10;;;0.80;;
83814;SDS011;73829;53.826;-3.034;2024-03-17T05:20:25;2.30;;;0.80;;
83814;SDS011;73829;53.826;-3.034;2024-03-17T05:22:55;2.10;;;0.80;;
83814;SDS011;73829;53.826;-3.034;2024-03-17T05:25:26;2.10;;;0.70;;
83814;SDS011;73829;53.826;-3.034;2024-03-17T05:27:57;3.30;;;0.80;;
83814;SDS011;73829;53.826;-3.034;2024-03-17T05:30:28;1.90;;;0.70;;
83814;SDS011;73829;53.826;-3.034;2024-03-17T05:32:59;2.10;;;0.70;;
83814;SDS011;73829;53.826;-3.034;2024-03-17T05:35:29;2.70;;;0.90;;
83814;SDS011;73829;53.826;-3.034;2024-03-17T05:38:00;1.80;;;0.80;;
83814;SDS011;73829;53.826;-3.034;2024-03-17T05:40:30;2.10;;;0.90;;
83814;SDS011;73829;53.826;-3.034;2024-03-17T05:43:01;2.70;;;0.70;;
83814;SDS011;73829;53.826;-3.034;2024-03-17T05:45:32;2.50;;;1.00;;
83814;SDS011;73829;53.826;-3.034;2024-03-17T05:48:02;2.70;;;0.80;;
83814;SDS011;73829;53.826;-3.034;2024-03-17T05:50:34;2.40;;;0.90;;
83814;SDS011;73829;53.826;-3.034;2024-03-17T05:53:05;2.10;;;0.70;;
83814;SDS011;73829;53.826;-3.034;2024-03-17T05:55:36;1.80;;;0.60;;
83814;SDS011;73829;53.826;-3.034;2024-03-17T05:58:08;2.60;;;0.70;;
83814;SDS011;73829;53.826;-3.034;2024-03-17T06:03:08;1.40;;;0.60;;
83814;SDS011;73829;53.826;-3.034;2024-03-17T06:08:09;2.70;;;0.80;;
83814;SDS011;73829;53.826;-3.034;2024-03-17T06:10:43;2.10;;;0.80;;
83814;SDS011;73829;53.826;-3.034;2024-03-17T06:13:15;2.30;;;0.80;;
83814;SDS011;73829;53.826;-3.034;2024-03-17T06:15:46;2.40;;;0.90;;
83814;SDS011;73829;53.826;-3.034;2024-03-17T06:18:17;1.90;;;0.80;;
83814;SDS011;73829;53.826;-3.034;2024-03-17T06:20:47;1.70;;;0.70;;
83814;SDS011;73829;53.826;-3.034;2024-03-17T06:23:18;2.30;;;0.70;;
83814;SDS011;73829;53.826;-3.034;2024-03-17T06:25:48;1.60;;;0.50;;
83814;SDS011;73829;53.826;-3.034;2024-03-17T06:30:55;2.80;;;0.80;;
83814;SDS011;73829;53.826;-3.034;2024-03-17T06:33:27;2.30;;;0.60;;
83814;SDS011;73829;53.826;-3.034;2024-03-17T06:36:00;2.20;;;0.70;;
83814;SDS011;73829;53.826;-3.034;2024-03-17T06:38:32;1.90;;;0.70;;
83814;SDS011;73829;53.826;-3.034;2024-03-17T06:41:03;2.90;;;0.80;;
83814;SDS011;73829;53.826;-3.034;2024-03-17T06:43:34;2.30;;;0.80;;
83814;SDS011;73829;53.826;-3.034;2024-03-17T06:46:04;1.90;;;0.70;;
83814;SDS011;73829;53.826;-3.034;2024-03-17T06:48:35;2.00;;;0.70;;
83814;SDS011;73829;53.826;-3.034;2024-03-17T06:51:07;1.60;;;0.70;;
83814;SDS011;73829;53.826;-3.034;2024-03-17T06:53:38;2.40;;;0.70;;
83814;SDS011;73829;53.826;-3.034;2024-03-17T06:56:08;2.60;;;0.70;;
83814;SDS011;73829;53.826;-3.034;2024-03-17T06:58:39;2.00;;;0.60;;
83814;SDS011;73829;53.826;-3.034;2024-03-17T07:01:09;2.20;;;0.70;;
83814;SDS011;73829;53.826;-3.034;2024-03-17T07:03:40;1.50;;;0.50;;
83814;SDS011;73829;53.826;-3.034;2024-03-17T07:06:11;2.00;;;0.60;;
83814;SDS011;73829;53.826;-3.034;2024-03-17T07:11:10;2.00;;;0.70;;
83814;SDS011;73829;53.826;-3.034;2024-03-17T07:13:41;2.00;;;0.70;;
83814;SDS011;73829;53.826;-3.034;2024-03-17T07:16:11;2.60;;;0.70;;
83814;SDS011;73829;53.826;-3.034;2024-03-17T07:18:42;1.90;;;0.80;;
83814;SDS011;73829;53.826;-3.034;2024-03-17T07:21:13;1.80;;;0.70;;
83814;SDS011;73829;53.826;-3.034;2024-03-17T07:23:43;1.90;;;0.70;;
83814;SDS011;73829;53.826;-3.034;2024-03-17T07:26:14;2.50;;;0.90;;
83814;SDS011;73829;53.826;-3.034;2024-03-17T07:31:14;2.80;;;0.70;;
83814;SDS011;73829;53.826;-3.034;2024-03-17T07:33:44;1.80;;;0.60;;
83814;SDS011;73829;53.826;-3.034;2024-03-17T07:36:15;1.50;;;0.60;;
83814;SDS011;73829;53.826;-3.034;2024-03-17T07:38:46;1.50;;;0.60;;
83814;SDS011;73829;53.826;-3.034;2024-03-17T07:41:17;1.40;;;0.50;;
83814;SDS011;73829;53.826;-3.034;2024-03-17T07:43:48;1.90;;;0.60;;
83814;SDS011;73829;53.826;-3.034;2024-03-17T07:46:20;1.70;;;0.60;;
83814;SDS011;73829;53.826;-3.034;2024-03-17T07:48:51;3.00;;;0.80;;
83814;SDS011;73829;53.826;-3.034;2024-03-17T07:51:21;1.60;;;0.60;;
83814;SDS011;73829;53.826;-3.034;2024-03-17T07:53:52;2.00;;;0.60;;
83814;SDS011;73829;53.826;-3.034;2024-03-17T07:56:22;1.40;;;0.60;;
83814;SDS011;73829;53.826;-3.034;2024-03-17T07:58:53;1.10;;;0.50;;
83814;SDS011;73829;53.826;-3.034;2024-03-17T08:01:24;1.30;;;0.50;;
83814;SDS011;73829;53.826;-3.034;2024-03-17T08:03:54;1.70;;;0.40;;
83814;SDS011;73829;53.826;-3.034;2024-03-17T08:06:26;1.20;;;0.50;;
83814;SDS011;73829;53.826;-3.034;2024-03-17T08:08:56;1.00;;;0.40;;
83814;SDS011;73829;53.826;-3.034;2024-03-17T08:11:27;1.70;;;0.60;;
83814;SDS011;73829;53.826;-3.034;2024-03-17T08:13:58;1.70;;;0.70;;
83814;SDS011;73829;53.826;-3.034;2024-03-17T08:16:29;2.00;;;0.70;;
83814;SDS011;73829;53.826;-3.034;2024-03-17T08:18:59;1.10;;;0.50;;
83814;SDS011;73829;53.826;-3.034;2024-03-17T08:23:59;1.40;;;0.60;;
83814;SDS011;73829;53.826;-3.034;2024-03-17T08:26:30;1.70;;;0.60;;
83814;SDS011;73829;53.826;-3.034;2024-03-17T08:31:30;1.70;;;0.60;;
83814;SDS011;73829;53.826;-3.034;2024-03-17T08:34:01;2.00;;;0.70;;
83814;SDS011;73829;53.826;-3.034;2024-03-17T08:36:31;2.00;;;0.60;;
83814;SDS011;73829;53.826;-3.034;2024-03-17T08:39:02;4.40;;;0.90;;
83814;SDS011;73829;53.826;-3.034;2024-03-17T08:44:02;2.40;;;0.80;;
83814;SDS011;73829;53.826;-3.034;2024-03-17T08:46:33;2.40;;;0.70;;
83814;SDS011;73829;53.826;-3.034;2024-03-17T08:49:04;2.70;;;0.80;;
83814;SDS011;73829;53.826;-3.034;2024-03-17T08:51:35;3.00;;;0.80;;
83814;SDS011;73829;53.826;-3.034;2024-03-17T08:54:05;2.30;;;0.80;;
83814;SDS011;73829;53.826;-3.034;2024-03-17T08:56:36;2.10;;;0.60;;
83814;SDS011;73829;53.826;-3.034;2024-03-17T08:59:06;5.70;;;1.10;;
83814;SDS011;73829;53.826;-3.034;2024-03-17T09:01:39;2.30;;;0.70;;
83814;SDS011;73829;53.826;-3.034;2024-03-17T09:04:11;2.90;;;0.80;;
83814;SDS011;73829;53.826;-3.034;2024-03-17T09:06:41;2.20;;;0.70;;
83814;SDS011;73829;53.826;-3.034;2024-03-17T09:09:12;3.10;;;0.80;;
83814;SDS011;73829;53.826;-3.034;2024-03-17T09:11:42;2.20;;;0.70;;
83814;SDS011;73829;53.826;-3.034;2024-03-17T09:14:13;3.20;;;0.80;;
83814;SDS011;73829;53.826;-3.034;2024-03-17T09:16:43;2.50;;;0.70;;
83814;SDS011;73829;53.826;-3.034;2024-03-17T09:19:15;4.60;;;0.80;;
83814;SDS011;73829;53.826;-3.034;2024-03-17T09:21:46;3.40;;;1.10;;
83814;SDS011;73829;53.826;-3.034;2024-03-17T09:24:16;2.40;;;0.90;;
83814;SDS011;73829;53.826;-3.034;2024-03-17T09:26:47;2.50;;;0.80;;
83814;SDS011;73829;53.826;-3.034;2024-03-17T09:29:18;3.80;;;0.90;;
83814;SDS011;73829;53.826;-3.034;2024-03-17T09:31:50;3.70;;;0.70;;
83814;SDS011;73829;53.826;-3.034;2024-03-17T09:34:21;2.10;;;0.70;;
83814;SDS011;73829;53.826;-3.034;2024-03-17T09:36:51;4.20;;;1.10;;
83814;SDS011;73829;53.826;-3.034;2024-03-17T09:39:22;3.40;;;0.90;;
83814;SDS011;73829;53.826;-3.034;2024-03-17T09:41:52;3.40;;;0.60;;
83814;SDS011;73829;53.826;-3.034;2024-03-17T09:44:23;2.50;;;0.60;;
83814;SDS011;73829;53.826;-3.034;2024-03-17T09:46:56;3.50;;;0.60;;
83814;SDS011;73829;53.826;-3.034;2024-03-17T09:49:28;2.20;;;0.60;;
83814;SDS011;73829;53.826;-3.034;2024-03-17T09:51:59;2.50;;;0.60;;
83814;SDS011;73829;53.826;-3.034;2024-03-17T09:54:30;3.50;;;0.90;;
83814;SDS011;73829;53.826;-3.034;2024-03-17T09:57:00;2.80;;;0.70;;
83814;SDS011;73829;53.826;-3.034;2024-03-17T09:59:37;4.50;;;1.00;;
83814;SDS011;73829;53.826;-3.034;2024-03-17T10:04:43;4.40;;;1.00;;
83814;SDS011;73829;53.826;-3.034;2024-03-17T10:07:14;3.70;;;1.00;;
83814;SDS011;73829;53.826;-3.034;2024-03-17T10:09:45;3.90;;;0.90;;
83814;SDS011;73829;53.826;-3.034;2024-03-17T10:12:27;3.00;;;0.80;;
83814;SDS011;73829;53.826;-3.034;2024-03-17T10:14:59;4.10;;;1.00;;
83814;SDS011;73829;53.826;-3.034;2024-03-17T10:17:32;4.10;;;0.90;;
83814;SDS011;73829;53.826;-3.034;2024-03-17T10:20:13;5.50;;;0.90;;
83814;SDS011;73829;53.826;-3.034;2024-03-17T10:23:01;2.30;;;0.70;;
83814;SDS011;73829;53.826;-3.034;2024-03-17T10:25:33;2.50;;;0.50;;
83814;SDS011;73829;53.826;-3.034;2024-03-17T10:28:11;4.20;;;0.80;;
83814;SDS011;73829;53.826;-3.034;2024-03-17T10:30:43;3.90;;;0.70;;
83814;SDS011;73829;53.826;-3.034;2024-03-17T10:33:27;3.00;;;0.70;;
83814;SDS011;73829;53.826;-3.034;2024-03-17T10:36:01;3.00;;;0.80;;
83814;SDS011;73829;53.826;-3.034;2024-03-17T10:38:33;3.20;;;0.70;;
83814;SDS011;73829;53.826;-3.034;2024-03-17T10:41:04;3.50;;;0.70;;
83814;SDS011;73829;53.826;-3.034;2024-03-17T10:43:38;2.50;;;0.90;;
83814;SDS011;73829;53.826;-3.034;2024-03-17T10:46:09;3.80;;;0.70;;
83814;SDS011;73829;53.826;-3.034;2024-03-17T10:48:43;3.10;;;0.80;;
83814;SDS011;73829;53.826;-3.034;2024-03-17T10:51:16;4.50;;;0.70;;
83814;SDS011;73829;53.826;-3.034;2024-03-17T10:53:47;2.90;;;0.60;;
83814;SDS011;73829;53.826;-3.034;2024-03-17T10:56:20;2.50;;;0.60;;
83814;SDS011;73829;53.826;-3.034;2024-03-17T10:58:53;3.80;;;0.70;;
83814;SDS011;73829;53.826;-3.034;2024-03-17T11:01:25;3.20;;;1.10;;
83814;SDS011;73829;53.826;-3.034;2024-03-17T11:03:56;3.60;;;0.80;;
83814;SDS011;73829;53.826;-3.034;2024-03-17T11:06:28;2.80;;;0.40;;
83814;SDS011;73829;53.826;-3.034;2024-03-17T11:08:59;1.20;;;0.40;;
83814;SDS011;73829;53.826;-3.034;2024-03-17T11:11:37;3.40;;;0.70;;
83814;SDS011;73829;53.826;-3.034;2024-03-17T11:16:57;2.00;;;0.50;;
83814;SDS011;73829;53.826;-3.034;2024-03-17T11:19:28;3.10;;;0.50;;
83814;SDS011;73829;53.826;-3.034;2024-03-17T11:21:58;2.60;;;0.60;;
83814;SDS011;73829;53.826;-3.034;2024-03-17T11:28:04;3.90;;;0.80;;
83814;SDS011;73829;53.826;-3.034;2024-03-17T11:30:44;3.60;;;0.90;;
83814;SDS011;73829;53.826;-3.034;2024-03-17T11:36:31;2.90;;;0.70;;
83814;SDS011;73829;53.826;-3.034;2024-03-17T11:39:05;1.80;;;0.50;;
83814;SDS011;73829;53.826;-3.034;2024-03-17T11:41:45;2.30;;;0.50;;
83814;SDS011;73829;53.826;-3.034;2024-03-17T11:44:25;3.00;;;0.60;;
83814;SDS011;73829;53.826;-3.034;2024-03-17T11:46:57;3.20;;;0.50;;
83814;SDS011;73829;53.826;-3.034;2024-03-17T11:49:29;2.90;;;0.50;;
83814;SDS011;73829;53.826;-3.034;2024-03-17T11:52:09;1.60;;;0.40;;
83814;SDS011;73829;53.826;-3.034;2024-03-17T11:54:41;2.20;;;0.60;;
83814;SDS011;73829;53.826;-3.034;2024-03-17T11:57:13;2.80;;;0.60;;
83814;SDS011;73829;53.826;-3.034;2024-03-17T12:02:20;3.40;;;0.60;;
83814;SDS011;73829;53.826;-3.034;2024-03-17T12:04:53;2.00;;;0.50;;
83814;SDS011;73829;53.826;-3.034;2024-03-17T12:07:26;2.60;;;0.70;;
83814;SDS011;73829;53.826;-3.034;2024-03-17T12:09:58;2.70;;;0.60;;
83814;SDS011;73829;53.826;-3.034;2024-03-17T12:12:30;2.50;;;0.60;;
83814;SDS011;73829;53.826;-3.034;2024-03-17T12:15:05;3.00;;;0.50;;
83814;SDS011;73829;53.826;-3.034;2024-03-17T12:17:51;2.50;;;0.60;;
83814;SDS011;73829;53.826;-3.034;2024-03-17T12:20:22;1.40;;;0.50;;
83814;SDS011;73829;53.826;-3.034;2024-03-17T12:22:53;2.00;;;0.60;;
83814;SDS011;73829;53.826;-3.034;2024-03-17T12:25:25;2.50;;;0.50;;
83814;SDS011;73829;53.826;-3.034;2024-03-17T12:27:56;1.10;;;0.40;;
83814;SDS011;73829;53.826;-3.034;2024-03-17T12:30:27;1.80;;;0.60;;
83814;SDS011;73829;53.826;-3.034;2024-03-17T12:32:58;3.10;;;0.60;;
83814;SDS011;73829;53.826;-3.034;2024-03-17T12:37:57;2.30;;;0.50;;
83814;SDS011;73829;53.826;-3.034;2024-03-17T12:40:28;2.20;;;0.60;;
83814;SDS011;73829;53.826;-3.034;2024-03-17T12:42:58;3.10;;;0.60;;
83814;SDS011;73829;53.826;-3.034;2024-03-17T12:45:29;2.50;;;0.80;;
83814;SDS011;73829;53.826;-3.034;2024-03-17T12:47:59;2.30;;;0.60;;
83814;SDS011;73829;53.826;-3.034;2024-03-17T12:50:30;2.40;;;0.70;;
83814;SDS011;73829;53.826;-3.034;2024-03-17T12:53:00;1.20;;;0.40;;
83814;SDS011;73829;53.826;-3.034;2024-03-17T12:55:31;1.50;;;0.40;;
83814;SDS011;73829;53.826;-3.034;2024-03-17T12:58:20;2.10;;;0.50;;
83814;SDS011;73829;53.826;-3.034;2024-03-17T13:01:09;1.10;;;0.40;;
83814;SDS011;73829;53.826;-3.034;2024-03-17T13:03:43;2.80;;;0.60;;
83814;SDS011;73829;53.826;-3.034;2024-03-17T13:06:21;1.60;;;0.40;;
83814;SDS011;73829;53.826;-3.034;2024-03-17T13:08:53;2.60;;;0.60;;
83814;SDS011;73829;53.826;-3.034;2024-03-17T13:11:23;2.30;;;0.60;;
83814;SDS011;73829;53.826;-3.034;2024-03-17T13:13:54;1.40;;;0.50;;
83814;SDS011;73829;53.826;-3.034;2024-03-17T13:16:24;1.00;;;0.40;;
83814;SDS011;73829;53.826;-3.034;2024-03-17T13:18:55;2.20;;;0.70;;
83814;SDS011;73829;53.826;-3.034;2024-03-17T13:21:26;2.30;;;0.50;;
83814;SDS011;73829;53.826;-3.034;2024-03-17T13:23:56;2.00;;;0.50;;
83814;SDS011;73829;53.826;-3.034;2024-03-17T13:26:27;2.60;;;0.60;;
83814;SDS011;73829;53.826;-3.034;2024-03-17T13:28:57;1.80;;;0.60;;
83814;SDS011;73829;53.826;-3.034;2024-03-17T13:31:28;0.70;;;0.30;;
83814;SDS011;73829;53.826;-3.034;2024-03-17T13:33:59;1.30;;;0.40;;
83814;SDS011;73829;53.826;-3.034;2024-03-17T13:36:29;2.10;;;0.40;;
83814;SDS011;73829;53.826;-3.034;2024-03-17T13:41:29;2.20;;;0.50;;
83814;SDS011;73829;53.826;-3.034;2024-03-17T13:43:59;2.40;;;0.50;;
83814;SDS011;73829;53.826;-3.034;2024-03-17T13:46:30;1.70;;;0.40;;
83814;SDS011;73829;53.826;-3.034;2024-03-17T13:49:07;2.40;;;0.60;;
83814;SDS011;73829;53.826;-3.034;2024-03-17T13:51:38;2.30;;;0.50;;
83814;SDS011;73829;53.826;-3.034;2024-03-17T13:54:09;2.00;;;0.50;;
83814;SDS011;73829;53.826;-3.034;2024-03-17T13:56:39;2.00;;;0.50;;
83814;SDS011;73829;53.826;-3.034;2024-03-17T14:01:39;2.20;;;0.60;;
83814;SDS011;73829;53.826;-3.034;2024-03-17T14:04:13;1.70;;;0.50;;
83814;SDS011;73829;53.826;-3.034;2024-03-17T14:06:45;2.10;;;0.60;;
83814;SDS011;73829;53.826;-3.034;2024-03-17T14:09:17;1.30;;;0.40;;
83814;SDS011;73829;53.826;-3.034;2024-03-17T14:11:48;2.00;;;0.60;;
83814;SDS011;73829;53.826;-3.034;2024-03-17T14:14:18;1.50;;;0.30;;
83814;SDS011;73829;53.826;-3.034;2024-03-17T14:16:49;2.30;;;0.80;;
83814;SDS011;73829;53.826;-3.034;2024-03-17T14:19:21;1.80;;;0.50;;
83814;SDS011;73829;53.826;-3.034;2024-03-17T14:21:51;3.70;;;0.80;;
83814;SDS011;73829;53.826;-3.034;2024-03-17T14:24:22;2.40;;;0.70;;
83814;SDS011;73829;53.826;-3.034;2024-03-17T14:26:53;2.60;;;0.90;;
83814;SDS011;73829;53.826;-3.034;2024-03-17T14:29:23;2.40;;;0.70;;
83814;SDS011;73829;53.826;-3.034;2024-03-17T14:31:54;2.60;;;0.70;;
83814;SDS011;73829;53.826;-3.034;2024-03-17T14:34:24;2.70;;;0.80;;
83814;SDS011;73829;53.826;-3.034;2024-03-17T14:37:01;2.50;;;0.80;;
83814;SDS011;73829;53.826;-3.034;2024-03-17T14:42:00;1.50;;;0.60;;
83814;SDS011;73829;53.826;-3.034;2024-03-17T14:44:33;3.10;;;0.70;;
83814;SDS011;73829;53.826;-3.034;2024-03-17T14:47:04;4.10;;;0.80;;
83814;SDS011;73829;53.826;-3.034;2024-03-17T14:52:04;2.50;;;0.80;;
83814;SDS011;73829;53.826;-3.034;2024-03-17T14:54:35;3.50;;;0.70;;
83814;SDS011;73829;53.826;-3.034;2024-03-17T14:57:06;3.80;;;1.10;;
83814;SDS011;73829;53.826;-3.034;2024-03-17T14:59:37;3.80;;;1.00;;
83814;SDS011;73829;53.826;-3.034;2024-03-17T15:02:08;5.40;;;1.60;;
83814;SDS011;73829;53.826;-3.034;2024-03-17T15:04:39;4.20;;;0.90;;
83814;SDS011;73829;53.826;-3.034;2024-03-17T15:07:09;4.30;;;1.10;;
83814;SDS011;73829;53.826;-3.034;2024-03-17T15:09:41;3.20;;;1.00;;
83814;SDS011;73829;53.826;-3.034;2024-03-17T15:12:11;2.10;;;0.70;;
83814;SDS011;73829;53.826;-3.034;2024-03-17T15:14:42;3.30;;;1.00;;
83814;SDS011;73829;53.826;-3.034;2024-03-17T15:17:15;2.70;;;0.80;;
83814;SDS011;73829;53.826;-3.034;2024-03-17T15:22:16;4.80;;;1.20;;
83814;SDS011;73829;53.826;-3.034;2024-03-17T15:24:49;3.40;;;0.80;;
83814;SDS011;73829;53.826;-3.034;2024-03-17T15:27:19;3.60;;;1.30;;
83814;SDS011;73829;53.826;-3.034;2024-03-17T15:29:51;3.90;;;1.20;;
83814;SDS011;73829;53.826;-3.034;2024-03-17T15:32:23;4.30;;;1.20;;
83814;SDS011;73829;53.826;-3.034;2024-03-17T15:34:54;3.50;;;1.20;;
83814;SDS011;73829;53.826;-3.034;2024-03-17T15:37:26;3.50;;;1.10;;
83814;SDS011;73829;53.826;-3.034;2024-03-17T15:39:57;3.00;;;0.80;;
83814;SDS011;73829;53.826;-3.034;2024-03-17T15:42:29;2.00;;;0.60;;
83814;SDS011;73829;53.826;-3.034;2024-03-17T15:45:00;2.40;;;0.50;;
83814;SDS011;73829;53.826;-3.034;2024-03-17T15:47:36;4.90;;;1.10;;
83814;SDS011;73829;53.826;-3.034;2024-03-17T15:50:07;4.90;;;0.90;;
83814;SDS011;73829;53.826;-3.034;2024-03-17T15:52:39;3.80;;;0.70;;
83814;SDS011;73829;53.826;-3.034;2024-03-17T15:55:12;2.50;;;0.70;;
83814;SDS011;73829;53.826;-3.034;2024-03-17T15:57:42;2.20;;;0.60;;
83814;SDS011;73829;53.826;-3.034;2024-03-17T16:00:14;3.10;;;0.70;;
83814;SDS011;73829;53.826;-3.034;2024-03-17T16:02:45;3.00;;;0.70;;
83814;SDS011;73829;53.826;-3.034;2024-03-17T16:05:18;3.20;;;0.50;;
83814;SDS011;73829;53.826;-3.034;2024-03-17T16:07:49;2.40;;;0.60;;
83814;SDS011;73829;53.826;-3.034;2024-03-17T16:10:20;2.50;;;0.60;;
83814;SDS011;73829;53.826;-3.034;2024-03-17T16:12:52;2.50;;;0.60;;